»·PEaware :: N260MA KSMO-KSNA

N260MA :: KSMO-KSNA

FLIGHT INFORMATION

Flight Status: Arrived
Operator: Privately registered:
United States
More flights under this callsign
Pilot: Anonymous 30260 (30260)
Aircraft: AERMACCHI WARRIOR
(F260)
More flights by this aircraft type
Origin: KSMO Santa Monica Mun
United States
Destination: KSNA John Wayne-Orange Co
United States
More flights between these airports :: More routes between these airports
Route: SMO SMO125R V64 SLI
File this flight plan on PilotEdge
Remarks: SMOP4
Altitude:
(Current/Filed)
4,000ft
Speed:
(Current/Filed)
173kts
Departed: 21-Oct-20 09:50 AM
Arrived: 21-Oct-20 10:35 AM
Distance/Time
Traveled:
35nm/0:45
Distance/Time
To Go:
Arrived

Flight Plot

Page will automatically refresh every two minutes.


Map Options




Map Legend


Flown Route
Filed Route
Departure Airport
Arrival Airport
Navaid (VOR, NDB)
Fix

Horizontal Profiles

Position Reports

Time Latitude Longitude Heading Altitude Ground
Speed
21-Oct-20 09:24 34.013073 -118.451528 321 130ft 0kts
21-Oct-20 09:25 34.013073 -118.451528 321 130ft 0kts
21-Oct-20 09:26 34.013073 -118.451528 321 130ft 0kts
21-Oct-20 09:27 34.013073 -118.451528 321 130ft 0kts
21-Oct-20 09:28 34.013073 -118.451528 321 130ft 0kts
21-Oct-20 09:29 34.013073 -118.451528 321 130ft 0kts
21-Oct-20 09:30 34.013073 -118.451528 321 130ft 0kts
21-Oct-20 09:31 34.013073 -118.451528 321 130ft 0kts
21-Oct-20 09:32 34.013073 -118.451528 321 130ft 0kts
21-Oct-20 09:33 34.013073 -118.451528 321 130ft 0kts
21-Oct-20 09:34 34.013073 -118.451528 321 130ft 0kts
21-Oct-20 09:35 34.013073 -118.451528 321 130ft 0kts
21-Oct-20 09:36 34.013073 -118.451528 321 130ft 0kts
21-Oct-20 09:37 34.013073 -118.451528 321 130ft 0kts
21-Oct-20 09:38 34.013073 -118.451528 321 130ft 0kts
21-Oct-20 09:39 34.013670 -118.451853 320 132ft 1kts
21-Oct-20 09:40 34.012705 -118.453376 259 126ft 0kts
21-Oct-20 09:41 34.014197 -118.452129 43 133ft 10kts
21-Oct-20 09:42 34.016228 -118.449737 45 143ft 10kts
21-Oct-20 09:43 34.018607 -118.446915 42 158ft 10kts
21-Oct-20 09:44 34.019468 -118.445890 222 160ft 11kts
21-Oct-20 09:45 34.019005 -118.446436 224 159ft 0kts
21-Oct-20 09:46 34.019005 -118.446436 223 159ft 0kts
21-Oct-20 09:47 34.019005 -118.446436 224 159ft 0kts
21-Oct-20 09:48 34.018871 -118.447711 224 158ft 2kts
21-Oct-20 09:49 34.001701 -118.468506 225 901ft 126kts
21-Oct-20 09:50 33.984509 -118.506786 260 2327ft 141kts
21-Oct-20 09:51 33.975831 -118.549997 242 3634ft 142kts
21-Oct-20 09:52 33.953275 -118.543180 84 4012ft 165kts
21-Oct-20 09:53 33.963253 -118.506583 97 4246ft 154kts
21-Oct-20 09:54 33.939063 -118.485564 170 3841ft 163kts
21-Oct-20 09:55 33.909443 -118.460688 140 3565ft 160kts
21-Oct-20 09:56 33.885591 -118.437652 140 3813ft 150kts
21-Oct-20 09:57 33.865286 -118.417887 140 3998ft 165kts
21-Oct-20 09:58 33.843491 -118.396614 140 3992ft 175kts
21-Oct-20 09:59 33.823805 -118.377367 140 3990ft 175kts
21-Oct-20 10:00 33.804378 -118.358357 140 3989ft 173kts
21-Oct-20 10:01 33.785636 -118.339990 140 3991ft 175kts
21-Oct-20 10:02 33.766241 -118.316669 113 4006ft 175kts
21-Oct-20 10:04 33.753838 -118.278855 111 4006ft 175kts
21-Oct-20 10:05 33.740627 -118.237754 111 4005ft 171kts
21-Oct-20 10:06 33.726493 -118.193020 111 4004ft 171kts
21-Oct-20 10:07 33.712583 -118.148134 111 4002ft 171kts
21-Oct-20 10:08 33.699900 -118.106466 110 4001ft 170kts
21-Oct-20 10:09 33.688191 -118.067511 110 3999ft 169kts
21-Oct-20 10:10 33.677605 -118.032387 110 3999ft 170kts
21-Oct-20 10:11 33.668107 -118.001218 110 3999ft 171kts
21-Oct-20 10:12 33.656735 -117.964406 110 3999ft 171kts
21-Oct-20 10:13 33.648054 -117.936686 110 3999ft 171kts
21-Oct-20 10:14 33.638856 -117.907648 110 3999ft 171kts
21-Oct-20 10:15 33.637871 -117.877936 54 3996ft 170kts
21-Oct-20 10:16 33.662695 -117.862394 21 4048ft 167kts
21-Oct-20 10:17 33.689466 -117.848937 21 4004ft 170kts
21-Oct-20 10:18 33.716839 -117.838604 10 4010ft 167kts
21-Oct-20 10:19 33.734624 -117.835192 6 3982ft 169kts
21-Oct-20 10:20 33.759403 -117.830252 8 3987ft 169kts
21-Oct-20 10:20 33.782253 -117.825345 8 3978ft 169kts
21-Oct-20 10:22 33.813463 -117.818714 7 4056ft 167kts
21-Oct-20 10:22 33.834716 -117.812927 15 4006ft 169kts
21-Oct-20 10:23 33.859719 -117.804418 14 4049ft 166kts
21-Oct-20 10:24 33.873601 -117.780430 90 4007ft 171kts
21-Oct-20 10:25 33.859769 -117.757480 179 4057ft 160kts
21-Oct-20 10:27 33.832746 -117.768844 208 3310ft 126kts
21-Oct-20 10:27 33.819102 -117.777503 208 3000ft 99kts
21-Oct-20 10:28 33.803186 -117.787538 199 2734ft 90kts
21-Oct-20 10:29 33.784761 -117.800365 208 2154ft 114kts
21-Oct-20 10:30 33.759952 -117.815394 204 1821ft 83kts
21-Oct-20 10:31 33.737803 -117.828834 207 1370ft 93kts
21-Oct-20 10:32 33.712995 -117.845095 206 822ft 91kts
21-Oct-20 10:33 33.687916 -117.861047 208 263ft 90kts
21-Oct-20 10:34 33.678537 -117.867276 215 57ft 0kts

Navigation Log

Ident Type
Flight plan parsing failed, navigation log unavailable